createdAt,value
2016-06-03T00:00:14.482Z,0
2016-06-03T00:01:14.546Z,0
2016-06-03T00:02:14.471Z,0
2016-06-03T00:03:14.302Z,0
2016-06-03T00:04:14.445Z,0
2016-06-03T00:05:14.431Z,0
2016-06-03T00:06:14.450Z,0
2016-06-03T00:07:14.469Z,0
2016-06-03T00:08:14.472Z,0
2016-06-03T00:09:14.474Z,0
2016-06-03T00:10:14.320Z,0
2016-06-03T00:11:14.494Z,0
2016-06-03T00:12:14.467Z,0
2016-06-03T00:13:14.500Z,0
2016-06-03T00:14:14.488Z,0
2016-06-03T00:15:14.475Z,0
2016-06-03T00:16:14.477Z,0
2016-06-03T00:17:14.511Z,0
2016-06-03T00:18:14.499Z,0
2016-06-03T00:19:14.502Z,0
2016-06-03T00:20:14.348Z,0
2016-06-03T00:21:14.490Z,0
2016-06-03T00:22:14.510Z,0
2016-06-03T00:23:14.512Z,0
2016-06-03T00:24:14.530Z,0
2016-06-03T00:25:14.548Z,0
2016-06-03T00:26:14.535Z,0
2016-06-03T00:27:14.523Z,0
2016-06-03T00:28:14.540Z,0
2016-06-03T00:29:14.560Z,0
2016-06-03T00:30:14.531Z,0
2016-06-03T00:31:14.533Z,0
2016-06-03T00:32:14.537Z,0
2016-06-03T00:33:14.382Z,0
2016-06-03T00:34:14.573Z,0
2016-06-03T00:35:14.544Z,0
2016-06-03T00:36:14.562Z,0
2016-06-03T00:37:14.550Z,0
2016-06-03T00:38:14.567Z,0
2016-06-03T00:39:14.383Z,0
2016-06-03T00:40:15.214Z,0
2016-06-03T00:41:14.592Z,0
2016-06-03T00:42:14.407Z,0
2016-06-03T00:43:14.581Z,0
2016-06-03T00:44:14.583Z,0
2016-06-03T00:45:14.586Z,0
2016-06-03T00:46:14.574Z,0
2016-06-03T00:47:14.576Z,0
2016-06-03T00:48:14.595Z,0
2016-06-03T00:49:14.613Z,0
2016-06-03T00:50:14.569Z,0
2016-06-03T00:51:14.571Z,0
2016-06-03T00:52:14.590Z,0
2016-06-03T00:53:14.577Z,0
2016-06-03T00:54:14.610Z,0
2016-06-03T00:55:14.488Z,0
2016-06-03T00:56:14.601Z,0
2016-06-03T00:57:14.479Z,0
2016-06-03T00:58:14.622Z,0
2016-06-03T00:59:14.609Z,0
2016-06-03T01:00:14.454Z,0
2016-06-03T01:01:14.614Z,0
2016-06-03T01:02:14.617Z,0
2016-06-03T01:03:14.620Z,0
2016-06-03T01:04:14.606Z,0
2016-06-03T01:05:14.640Z,0
2016-06-03T01:06:14.628Z,0
2016-06-03T01:07:14.677Z,0
2016-06-03T01:08:14.634Z,0
2016-06-03T01:09:14.620Z,0
2016-06-03T01:10:15.045Z,0
2016-06-03T01:11:14.641Z,0
2016-06-03T01:12:14.659Z,0
2016-06-03T01:13:14.646Z,0
2016-06-03T01:14:14.649Z,0
2016-06-03T01:15:14.636Z,0
2016-06-03T01:16:14.655Z,0
2016-06-03T01:17:14.672Z,0
2016-06-03T01:18:14.660Z,0
2016-06-03T01:19:14.678Z,0
2016-06-03T01:20:14.665Z,0
2016-06-03T01:21:14.668Z,0
2016-06-03T01:22:14.671Z,0
2016-06-03T01:23:14.689Z,0
2016-06-03T01:24:14.707Z,0
2016-06-03T01:25:14.538Z,0
2016-06-03T01:26:14.713Z,0
2016-06-03T01:27:14.543Z,0
2016-06-03T01:28:14.702Z,0
2016-06-03T01:29:14.673Z,0
2016-06-03T01:30:14.692Z,0
2016-06-03T01:31:14.679Z,0
2016-06-03T01:32:14.760Z,0
2016-06-03T01:33:14.637Z,0
2016-06-03T01:34:14.718Z,0
2016-06-03T01:35:14.706Z,0
2016-06-03T01:36:14.739Z,0
2016-06-03T01:37:14.711Z,0
2016-06-03T01:38:14.698Z,0
2016-06-03T01:39:14.731Z,0
2016-06-03T01:40:15.423Z,0
2016-06-03T01:41:14.815Z,0
2016-06-03T01:42:14.724Z,0
2016-06-03T01:43:14.727Z,0
2016-06-03T01:44:14.714Z,0
2016-06-03T01:45:14.748Z,0
2016-06-03T01:46:14.735Z,0
2016-06-03T01:47:14.722Z,0
2016-06-03T01:48:14.772Z,0
2016-06-03T01:49:14.743Z,0
2016-06-03T01:50:14.761Z,0
2016-06-03T01:51:14.764Z,0
2016-06-03T01:52:14.767Z,0
2016-06-03T01:53:14.786Z,0
2016-06-03T01:54:14.771Z,0
2016-06-03T01:55:15.493Z,0
2016-06-03T01:56:14.824Z,0
2016-06-03T01:57:14.765Z,0
2016-06-03T01:58:14.767Z,0
2016-06-03T01:59:14.754Z,0
2016-06-03T02:00:14.788Z,0
2016-06-03T02:01:14.776Z,0
2016-06-03T02:02:14.762Z,0
2016-06-03T02:03:14.782Z,0
2016-06-03T02:04:14.799Z,0
2016-06-03T02:05:14.801Z,0
2016-06-03T02:06:14.773Z,0
2016-06-03T02:07:14.792Z,0
2016-06-03T02:08:14.809Z,0
2016-06-03T02:09:14.798Z,0
2016-06-03T02:10:15.253Z,0
2016-06-03T02:11:14.803Z,0
2016-06-03T02:12:14.805Z,0
2016-06-03T02:13:14.792Z,0
2016-06-03T02:14:14.811Z,0
2016-06-03T02:15:14.673Z,0
2016-06-03T02:16:14.675Z,0
2016-06-03T02:17:14.834Z,0
2016-06-03T02:18:14.836Z,0
2016-06-03T02:19:14.527Z,0
2016-06-03T02:20:14.717Z,0
2016-06-03T02:21:14.844Z,0
2016-06-03T02:22:14.847Z,0
2016-06-03T02:23:14.850Z,0
2016-06-03T02:24:14.852Z,0
2016-06-03T02:25:14.715Z,0
2016-06-03T02:26:14.858Z,0
2016-06-03T02:27:14.845Z,0
2016-06-03T02:28:14.863Z,0
2016-06-03T02:29:14.866Z,0
2016-06-03T02:30:14.854Z,0
2016-06-03T02:31:14.872Z,0
2016-06-03T02:32:14.859Z,0
2016-06-03T02:33:14.877Z,0
2016-06-03T02:34:14.880Z,0
2016-06-03T02:35:14.883Z,0
2016-06-03T02:36:14.870Z,0
2016-06-03T02:37:14.873Z,0
2016-06-03T02:38:14.875Z,0
2016-06-03T02:39:14.893Z,0
2016-06-03T02:40:14.943Z,0
2016-06-03T02:41:14.945Z,0
2016-06-03T02:42:14.886Z,0
2016-06-03T02:43:14.889Z,0
2016-06-03T02:44:14.891Z,0
2016-06-03T02:45:14.909Z,0
2016-06-03T02:46:14.912Z,0
2016-06-03T02:47:14.946Z,0
2016-06-03T02:48:14.902Z,0
2016-06-03T02:49:14.935Z,0
2016-06-03T02:50:14.922Z,4
2016-06-03T02:51:14.910Z,4
2016-06-03T02:52:14.928Z,4
2016-06-03T02:53:14.915Z,4
2016-06-03T02:54:14.902Z,4
2016-06-03T02:55:15.092Z,4
2016-06-03T02:56:14.955Z,0
2016-06-03T02:57:14.926Z,4
2016-06-03T02:58:14.944Z,4
2016-06-03T02:59:14.619Z,4
2016-06-03T03:00:14.919Z,4
2016-06-03T03:01:14.937Z,4
2016-06-03T03:02:14.799Z,4
2016-06-03T03:03:14.973Z,8
2016-06-03T03:04:14.820Z,4
2016-06-03T03:05:14.932Z,8
2016-06-03T03:06:14.950Z,8
2016-06-03T03:07:14.969Z,8
2016-06-03T03:08:15.002Z,12
2016-06-03T03:09:15.020Z,8
2016-06-03T03:10:14.836Z,12
2016-06-03T03:11:14.995Z,12
2016-06-03T03:12:14.998Z,16
2016-06-03T03:13:14.970Z,16
2016-06-03T03:14:14.987Z,20
2016-06-03T03:15:14.990Z,20
2016-06-03T03:16:14.961Z,24
2016-06-03T03:17:15.011Z,28
2016-06-03T03:18:14.998Z,32
2016-06-03T03:19:15.000Z,32
2016-06-03T03:20:15.003Z,40
2016-06-03T03:21:15.005Z,40
2016-06-03T03:22:15.009Z,44
2016-06-03T03:23:14.997Z,48
2016-06-03T03:24:14.999Z,52
2016-06-03T03:25:15.752Z,56
2016-06-03T03:26:15.005Z,60
2016-06-03T03:27:15.007Z,64
2016-06-03T03:28:15.024Z,68
2016-06-03T03:29:15.043Z,76
2016-06-03T03:30:15.015Z,80
2016-06-03T03:31:15.001Z,84
2016-06-03T03:32:15.021Z,88
2016-06-03T03:33:15.023Z,96
2016-06-03T03:34:15.057Z,108
2016-06-03T03:35:15.028Z,112
2016-06-03T03:36:15.047Z,124
2016-06-03T03:37:14.876Z,132
2016-06-03T03:38:15.036Z,144
2016-06-03T03:39:15.023Z,152
2016-06-03T03:40:15.682Z,164
2016-06-03T03:41:15.076Z,176
2016-06-03T03:42:15.031Z,184
2016-06-03T03:43:15.034Z,196
2016-06-03T03:44:15.036Z,208
2016-06-03T03:45:15.056Z,220
2016-06-03T03:46:15.073Z,232
2016-06-03T03:47:15.061Z,248
2016-06-03T03:48:15.031Z,256
2016-06-03T03:49:15.066Z,264
2016-06-03T03:50:15.100Z,280
2016-06-03T03:51:15.072Z,292
2016-06-03T03:52:15.059Z,304
2016-06-03T03:53:15.092Z,316
2016-06-03T03:54:15.126Z,324
2016-06-03T03:55:16.378Z,328
2016-06-03T03:56:15.100Z,340
2016-06-03T03:57:15.102Z,348
2016-06-03T03:58:15.091Z,348
2016-06-03T03:59:15.093Z,352
2016-06-03T04:00:15.096Z,356
2016-06-03T04:01:15.114Z,360
2016-06-03T04:02:15.117Z,372
2016-06-03T04:03:15.088Z,384
2016-06-03T04:04:15.121Z,396
2016-06-03T04:05:15.140Z,412
2016-06-03T04:06:15.143Z,432
2016-06-03T04:07:15.098Z,452
2016-06-03T04:08:15.118Z,472
2016-06-03T04:09:15.120Z,488
2016-06-03T04:10:15.793Z,512
2016-06-03T04:11:15.125Z,532
2016-06-03T04:12:15.128Z,556
2016-06-03T04:13:15.115Z,580
2016-06-03T04:14:15.134Z,620
2016-06-03T04:15:15.120Z,668
2016-06-03T04:16:15.122Z,740
2016-06-03T04:17:15.125Z,812
2016-06-03T04:18:15.159Z,880
2016-06-03T04:19:15.147Z,940
2016-06-03T04:20:15.150Z,900
2016-06-03T04:21:15.167Z,908
2016-06-03T04:22:15.139Z,1032
2016-06-03T04:23:15.158Z,968
2016-06-03T04:24:15.145Z,896
2016-06-03T04:25:15.053Z,896
2016-06-03T04:26:15.166Z,900
2016-06-03T04:27:15.183Z,916
2016-06-03T04:28:15.171Z,932
2016-06-03T04:29:15.174Z,956
2016-06-03T04:30:15.177Z,992
2016-06-03T04:31:15.179Z,1024
2016-06-03T04:32:15.182Z,1052
2016-06-03T04:33:15.200Z,1088
2016-06-03T04:34:15.188Z,1124
2016-06-03T04:35:15.174Z,1160
2016-06-03T04:36:15.193Z,1196
2016-06-03T04:37:15.226Z,1236
2016-06-03T04:38:15.198Z,1272
2016-06-03T04:39:15.200Z,1312
2016-06-03T04:40:15.657Z,1352
2016-06-03T04:41:15.252Z,1396
2016-06-03T04:42:15.193Z,1432
2016-06-03T04:43:15.211Z,1468
2016-06-03T04:44:15.198Z,1500
2016-06-03T04:45:15.060Z,1532
2016-06-03T04:46:15.219Z,1572
2016-06-03T04:47:15.238Z,1600
2016-06-03T04:48:15.225Z,1628
2016-06-03T04:49:15.227Z,1656
2016-06-03T04:50:15.230Z,1688
2016-06-03T04:51:15.233Z,1720
2016-06-03T04:52:15.548Z,1760
2016-06-03T04:53:15.081Z,1800
2016-06-03T04:54:15.287Z,1852
2016-06-03T04:55:15.275Z,1904
2016-06-03T04:56:15.090Z,1960
2016-06-03T04:57:15.264Z,2012
2016-06-03T04:58:15.298Z,2064
2016-06-03T04:59:15.255Z,2120
2016-06-03T05:00:15.272Z,2180
2016-06-03T05:01:15.259Z,2240
2016-06-03T05:02:15.278Z,2300
2016-06-03T05:03:15.296Z,2368
2016-06-03T05:04:15.268Z,2436
2016-06-03T05:05:15.270Z,2488
2016-06-03T05:06:15.304Z,2548
2016-06-03T05:07:15.260Z,2604
2016-06-03T05:08:15.310Z,2644
2016-06-03T05:09:15.296Z,2688
2016-06-03T05:10:15.674Z,2732
2016-06-03T05:11:15.271Z,2784
2016-06-03T05:12:15.305Z,2860
2016-06-03T05:13:15.323Z,2952
2016-06-03T05:14:15.310Z,3060
2016-06-03T05:15:15.298Z,3176
2016-06-03T05:16:15.331Z,3288
2016-06-03T05:17:15.302Z,3384
2016-06-03T05:18:15.320Z,3464
2016-06-03T05:19:15.323Z,3528
2016-06-03T05:20:15.326Z,3600
2016-06-03T05:21:15.313Z,3696
2016-06-03T05:22:15.331Z,3788
2016-06-03T05:23:15.334Z,3896
2016-06-03T05:24:15.337Z,4008
2016-06-03T05:25:15.636Z,4112
2016-06-03T05:26:15.342Z,4184
2016-06-03T05:27:15.345Z,4232
2016-06-03T05:28:15.348Z,4244
2016-06-03T05:29:15.335Z,4264
2016-06-03T05:30:15.369Z,4312
2016-06-03T05:31:15.356Z,4412
2016-06-03T05:32:15.375Z,4516
2016-06-03T05:33:15.360Z,4636
2016-06-03T05:34:15.394Z,4692
2016-06-03T05:35:15.382Z,4796
2016-06-03T05:36:15.354Z,4876
2016-06-03T05:37:15.371Z,4920
2016-06-03T05:38:15.405Z,4964
2016-06-03T05:39:15.393Z,4984
2016-06-03T05:40:16.130Z,5044
2016-06-03T05:41:15.445Z,5140
2016-06-03T05:42:15.401Z,5228
2016-06-03T05:43:15.435Z,5304
2016-06-03T05:44:15.391Z,5420
2016-06-03T05:45:15.409Z,5412
2016-06-03T05:46:15.396Z,5416
2016-06-03T05:47:15.446Z,5452
2016-06-03T05:48:15.402Z,5492
2016-06-03T05:49:15.420Z,5568
2016-06-03T05:50:15.438Z,5688
2016-06-03T05:51:15.410Z,5796
2016-06-03T05:52:15.475Z,5864
2016-06-03T05:53:15.492Z,5940
2016-06-03T05:54:15.448Z,6048
2016-06-03T05:55:15.608Z,6188
2016-06-03T05:56:15.453Z,6340
2016-06-03T05:57:15.456Z,6456
2016-06-03T05:58:15.444Z,6556
2016-06-03T05:59:15.478Z,6596
2016-06-03T06:00:15.449Z,6644
2016-06-03T06:01:15.467Z,6664
2016-06-03T06:02:15.455Z,6684
2016-06-03T06:03:15.505Z,6668
2016-06-03T06:04:15.507Z,6556
2016-06-03T06:05:15.478Z,6524
2016-06-03T06:06:15.513Z,6596
2016-06-03T06:07:15.344Z,6612
2016-06-03T06:08:15.502Z,6684
2016-06-03T06:09:15.505Z,6788
2016-06-03T06:10:15.382Z,6796
2016-06-03T06:11:15.527Z,6664
2016-06-03T06:12:15.512Z,6560
2016-06-03T06:13:15.515Z,6396
2016-06-03T06:14:15.549Z,6368
2016-06-03T06:15:15.537Z,6560
2016-06-03T06:16:15.554Z,6892
2016-06-03T06:17:15.542Z,7044
2016-06-03T06:18:15.560Z,7140
2016-06-03T06:19:15.548Z,7348
2016-06-03T06:20:15.550Z,7536
2016-06-03T06:21:15.553Z,7832
2016-06-03T06:22:15.571Z,7792
2016-06-03T06:23:15.574Z,7752
2016-06-03T06:24:15.608Z,7692
2016-06-03T06:25:15.282Z,7524
2016-06-03T06:26:15.582Z,7496
2016-06-03T06:27:15.601Z,7632
2016-06-03T06:28:15.602Z,7752
2016-06-03T06:29:15.605Z,7900
2016-06-03T06:30:15.608Z,8072
2016-06-03T06:31:15.611Z,7568
2016-06-03T06:32:15.613Z,7464
2016-06-03T06:33:15.647Z,7144
2016-06-03T06:34:15.619Z,8236
2016-06-03T06:35:15.638Z,7196
2016-06-03T06:36:15.640Z,7372
2016-06-03T06:37:15.658Z,7252
2016-06-03T06:38:15.661Z,7816
2016-06-03T06:39:15.523Z,8056
2016-06-03T06:40:16.402Z,8376
2016-06-03T06:41:15.825Z,8696
2016-06-03T06:42:15.702Z,10304
2016-06-03T06:43:15.674Z,11412
2016-06-03T06:44:15.708Z,11900
2016-06-03T06:45:15.710Z,13940
2016-06-03T06:46:15.713Z,17344
2016-06-03T06:47:15.740Z,16192
2016-06-03T06:48:15.739Z,16928
2016-06-03T06:49:15.800Z,16448
2016-06-03T06:50:15.846Z,12068
2016-06-03T06:51:15.876Z,16384
2016-06-03T06:52:15.875Z,10760
2016-06-03T06:53:15.903Z,16512
2016-06-03T06:54:15.899Z,16544
2016-06-03T06:55:16.570Z,16128
2016-06-03T06:56:15.958Z,16672
2016-06-03T06:57:15.995Z,16544
2016-06-03T06:58:15.985Z,16800
2016-06-03T06:59:15.991Z,16672
2016-06-03T07:00:16.014Z,16832
2016-06-03T07:01:16.004Z,16800
2016-06-03T07:02:16.024Z,16608
2016-06-03T07:03:16.028Z,16000
2016-06-03T07:04:16.031Z,15156
2016-06-03T07:05:16.082Z,14788
2016-06-03T07:06:16.070Z,14316
2016-06-03T07:07:16.073Z,8728
2016-06-03T07:08:16.093Z,8036
2016-06-03T07:09:16.081Z,7792
2016-06-03T07:10:17.303Z,7752
2016-06-03T07:11:16.104Z,7964
2016-06-03T07:12:16.106Z,8652
2016-06-03T07:13:16.124Z,11200
2016-06-03T07:14:16.018Z,13900
2016-06-03T07:15:16.129Z,14764
2016-06-03T07:16:16.148Z,15052
2016-06-03T07:17:16.181Z,14420
2016-06-03T07:18:16.153Z,13184
2016-06-03T07:19:16.156Z,11660
2016-06-03T07:20:16.174Z,9440
2016-06-03T07:21:16.192Z,8256
2016-06-03T07:22:16.195Z,8408
2016-06-03T07:23:16.230Z,9172
2016-06-03T07:24:16.216Z,12904
2016-06-03T07:25:17.329Z,14892
2016-06-03T07:26:16.222Z,16352
2016-06-03T07:27:16.225Z,14964
2016-06-03T07:28:16.227Z,17632
2016-06-03T07:29:16.261Z,17792
2016-06-03T07:30:16.295Z,17472
2016-06-03T07:31:16.283Z,17216
2016-06-03T07:32:16.285Z,17056
2016-06-03T07:33:16.288Z,16832
2016-06-03T07:34:16.305Z,16864
2016-06-03T07:35:16.308Z,17440
2016-06-03T07:36:16.343Z,15248
2016-06-03T07:37:16.361Z,16896
2016-06-03T07:38:16.316Z,16608
2016-06-03T07:39:16.335Z,16576
2016-06-03T07:40:16.213Z,16512
2016-06-03T07:41:16.607Z,16576
2016-06-03T07:42:16.234Z,16640
2016-06-03T07:43:16.392Z,11812
2016-06-03T07:44:16.395Z,16800
2016-06-03T07:45:16.398Z,16992
2016-06-03T07:46:16.448Z,13920
2016-06-03T07:47:16.434Z,10564
2016-06-03T07:48:16.437Z,9944
2016-06-03T07:49:16.440Z,10216
2016-06-03T07:50:16.286Z,11232
2016-06-03T07:51:16.492Z,15028
2016-06-03T07:52:16.479Z,11568
2016-06-03T07:53:16.481Z,9516
2016-06-03T07:54:16.500Z,9400
2016-06-03T07:55:16.769Z,9752
2016-06-03T07:56:16.537Z,13016
2016-06-03T07:57:16.524Z,15936
2016-06-03T07:58:16.527Z,16032
2016-06-03T07:59:16.560Z,16096
2016-06-03T08:00:16.563Z,15720
2016-06-03T08:01:16.550Z,15368
2016-06-03T08:02:16.568Z,15232
2016-06-03T08:03:16.588Z,15400
2016-06-03T08:04:16.590Z,15396
2016-06-03T08:05:16.577Z,15588
2016-06-03T08:06:16.673Z,15480
2016-06-03T08:07:16.598Z,15028
2016-06-03T08:08:16.616Z,14284
2016-06-03T08:09:16.649Z,14644
2016-06-03T08:10:16.981Z,13492
2016-06-03T08:11:16.655Z,12396
2016-06-03T08:12:16.658Z,13616
2016-06-03T08:13:16.660Z,13488
2016-06-03T08:14:16.663Z,11184
2016-06-03T08:15:16.698Z,10972
2016-06-03T08:16:16.700Z,10252
2016-06-03T08:17:16.703Z,10140
2016-06-03T08:18:16.565Z,10680
2016-06-03T08:19:16.739Z,11108
2016-06-03T08:20:16.758Z,11104
2016-06-03T08:21:16.729Z,11284
2016-06-03T08:22:16.747Z,10520
2016-06-03T08:23:16.766Z,10744
2016-06-03T08:24:16.784Z,10992
2016-06-03T08:25:16.990Z,11308
2016-06-03T08:26:16.789Z,11696
2016-06-03T08:27:16.808Z,12180
2016-06-03T08:28:16.842Z,12576
2016-06-03T08:29:16.828Z,12764
2016-06-03T08:30:16.831Z,12760
2016-06-03T08:31:16.850Z,12676
2016-06-03T08:32:16.852Z,12768
2016-06-03T08:33:16.871Z,12936
2016-06-03T08:34:16.873Z,13212
2016-06-03T08:35:16.845Z,13404
2016-06-03T08:36:16.863Z,13512
2016-06-03T08:37:16.882Z,13668
2016-06-03T08:38:16.885Z,13728
2016-06-03T08:39:16.918Z,13816
2016-06-03T08:40:18.140Z,13656
2016-06-03T08:41:16.985Z,13512
2016-06-03T08:42:16.926Z,13360
2016-06-03T08:43:16.898Z,13240
2016-06-03T08:44:16.915Z,13172
2016-06-03T08:45:16.951Z,13156
2016-06-03T08:46:16.953Z,13252
2016-06-03T08:47:16.986Z,13288
2016-06-03T08:48:16.943Z,13276
2016-06-03T08:49:16.961Z,13308
2016-06-03T08:50:16.995Z,13376
2016-06-03T08:51:16.982Z,13480
2016-06-03T08:52:16.984Z,13564
2016-06-03T08:53:17.017Z,13620
2016-06-03T08:54:17.021Z,13636
2016-06-03T08:55:17.398Z,13668
2016-06-03T08:56:17.026Z,13684
2016-06-03T08:57:17.045Z,13624
2016-06-03T08:58:17.047Z,13636
2016-06-03T08:59:17.019Z,13652
2016-06-03T09:00:17.037Z,13600
2016-06-03T09:01:17.086Z,13404
2016-06-03T09:02:17.042Z,13088
2016-06-03T09:03:17.108Z,12732
2016-06-03T09:04:17.064Z,12396
2016-06-03T09:05:17.083Z,12132
2016-06-03T09:06:17.163Z,11896
2016-06-03T09:07:17.134Z,11692
2016-06-03T09:08:17.152Z,11564
2016-06-03T09:09:17.093Z,11540
2016-06-03T09:10:17.221Z,11600
2016-06-03T09:11:17.176Z,11668
2016-06-03T09:12:17.132Z,11888
2016-06-03T09:13:16.994Z,12168
2016-06-03T09:14:17.138Z,12440
2016-06-03T09:15:17.202Z,12648
2016-06-03T09:16:17.159Z,12724
2016-06-03T09:17:17.177Z,12728
2016-06-03T09:18:17.227Z,12656
2016-06-03T09:19:17.213Z,12468
2016-06-03T09:20:17.185Z,12328
2016-06-03T09:21:17.218Z,12208
2016-06-03T09:22:17.190Z,12120
2016-06-03T09:23:17.224Z,12092
2016-06-03T09:24:17.056Z,12132
2016-06-03T09:25:17.620Z,12216
2016-06-03T09:26:17.263Z,12316
2016-06-03T09:27:17.235Z,12500
2016-06-03T09:28:17.237Z,12684
2016-06-03T09:29:17.114Z,12776
2016-06-03T09:30:17.259Z,12816
2016-06-03T09:31:17.292Z,12848
2016-06-03T09:32:17.294Z,12848
2016-06-03T09:33:17.282Z,12848
2016-06-03T09:34:17.114Z,12856
2016-06-03T09:35:17.303Z,12860
2016-06-03T09:36:17.353Z,12900
2016-06-03T09:37:17.293Z,12796
2016-06-03T09:38:17.296Z,12752
2016-06-03T09:39:17.314Z,12724
2016-06-03T09:40:17.504Z,12684
2016-06-03T09:41:17.538Z,12632
2016-06-03T09:42:17.338Z,12568
2016-06-03T09:43:17.341Z,12456
2016-06-03T09:44:17.344Z,12320
2016-06-03T09:45:17.362Z,12136
2016-06-03T09:46:17.332Z,11936
2016-06-03T09:47:17.383Z,11888
2016-06-03T09:48:17.212Z,11804
2016-06-03T09:49:17.373Z,11812
2016-06-03T09:50:17.406Z,11880
2016-06-03T09:51:17.440Z,11964
2016-06-03T09:52:17.396Z,12104
2016-06-03T09:53:17.398Z,12284
2016-06-03T09:54:17.401Z,12504
2016-06-03T09:55:17.435Z,12712
2016-06-03T09:56:17.484Z,12860
2016-06-03T09:57:17.440Z,12996
2016-06-03T09:58:17.458Z,12944
2016-06-03T09:59:17.445Z,12920
2016-06-03T10:00:17.449Z,12876
2016-06-03T10:01:17.467Z,12820
2016-06-03T10:02:17.470Z,12776
2016-06-03T10:03:17.488Z,12732
2016-06-03T10:04:17.522Z,12760
2016-06-03T10:05:17.352Z,12940
2016-06-03T10:06:17.512Z,13024
2016-06-03T10:07:17.514Z,13168
2016-06-03T10:08:17.516Z,13300
2016-06-03T10:09:17.520Z,13404
2016-06-03T10:10:17.866Z,13428
2016-06-03T10:11:17.510Z,13356
2016-06-03T10:12:17.544Z,13356
2016-06-03T10:13:17.546Z,13408
2016-06-03T10:14:17.533Z,13588
2016-06-03T10:15:17.629Z,13752
2016-06-03T10:16:17.601Z,13944
2016-06-03T10:17:17.573Z,14120
2016-06-03T10:18:17.591Z,14264
2016-06-03T10:19:17.562Z,14420
2016-06-03T10:20:17.596Z,14552
2016-06-03T10:21:17.599Z,14632
2016-06-03T10:22:17.601Z,14660
2016-06-03T10:23:17.620Z,14668
2016-06-03T10:24:17.637Z,14636
2016-06-03T10:25:17.500Z,14592
2016-06-03T10:26:17.613Z,14572
2016-06-03T10:27:17.631Z,14572
2016-06-03T10:28:17.462Z,14584
2016-06-03T10:29:17.651Z,14600
2016-06-03T10:30:17.686Z,14644
2016-06-03T10:31:17.751Z,14652
2016-06-03T10:32:17.691Z,14764
2016-06-03T10:33:17.678Z,14784
2016-06-03T10:34:17.711Z,14732
2016-06-03T10:35:17.683Z,14964
2016-06-03T10:36:17.733Z,15276
2016-06-03T10:37:17.688Z,15036
2016-06-03T10:38:17.723Z,15120
2016-06-03T10:39:17.741Z,14992
2016-06-03T10:40:17.760Z,15040
2016-06-03T10:41:17.777Z,15840
2016-06-03T10:42:17.733Z,15128
2016-06-03T10:43:17.783Z,14756
2016-06-03T10:44:17.770Z,14704
2016-06-03T10:45:17.773Z,14756
2016-06-03T10:46:17.822Z,14884
2016-06-03T10:47:17.794Z,14968
2016-06-03T10:48:17.796Z,15284
2016-06-03T10:49:17.784Z,15280
2016-06-03T10:50:17.802Z,15116
2016-06-03T10:51:17.805Z,14936
2016-06-03T10:52:37.010Z,15840
2016-06-03T10:53:17.809Z,15680
2016-06-03T10:54:17.829Z,15172
2016-06-03T10:55:17.862Z,15080
2016-06-03T10:56:17.896Z,14876
2016-06-03T10:57:17.868Z,14496
2016-06-03T10:58:17.839Z,13560
2016-06-03T10:59:17.873Z,13188
2016-06-03T11:00:17.891Z,13208
2016-06-03T11:01:17.894Z,13576
2016-06-03T11:02:37.084Z,13944
2016-06-03T11:03:17.900Z,14140
2016-06-03T11:04:17.886Z,13252
2016-06-03T11:05:17.936Z,12636
2016-06-03T11:06:17.922Z,12560
2016-06-03T11:07:17.910Z,12544
2016-06-03T11:08:17.944Z,12440
2016-06-03T11:09:17.947Z,12528
2016-06-03T11:10:18.418Z,12584
2016-06-03T11:11:18.030Z,12416
2016-06-03T11:12:17.955Z,11664
2016-06-03T11:13:17.832Z,11548
2016-06-03T11:14:17.976Z,11756
2016-06-03T11:15:17.978Z,11468
2016-06-03T11:16:17.981Z,11408
2016-06-03T11:17:30.734Z,11392
2016-06-03T11:18:18.002Z,11508
2016-06-03T11:19:18.005Z,11852
2016-06-03T11:20:18.038Z,12244
2016-06-03T11:21:18.041Z,12152
2016-06-03T11:22:18.013Z,12072
2016-06-03T11:23:18.062Z,12132
2016-06-03T11:24:18.065Z,12256
2016-06-03T11:25:17.895Z,12268
2016-06-03T11:26:18.134Z,12592
2016-06-03T11:27:18.074Z,13004
2016-06-03T11:28:18.060Z,12868
2016-06-03T11:29:18.079Z,12684
2016-06-03T11:30:18.081Z,12584
2016-06-03T11:31:18.068Z,12600
2016-06-03T11:32:18.102Z,13032
2016-06-03T11:33:18.105Z,12732
2016-06-03T11:34:18.123Z,12348
2016-06-03T11:35:18.111Z,12248
2016-06-03T11:36:18.129Z,12524
2016-06-03T11:37:30.897Z,12792
2016-06-03T11:38:18.166Z,12968
2016-06-03T11:39:18.012Z,13376
2016-06-03T11:40:19.436Z,13376
2016-06-03T11:41:18.408Z,13296
2016-06-03T11:42:18.208Z,13020
2016-06-03T11:43:18.179Z,12884
2016-06-03T11:44:18.213Z,12788
2016-06-03T11:45:18.215Z,12816
2016-06-03T11:46:18.077Z,12884
2016-06-03T11:47:30.955Z,13124
2016-06-03T11:48:18.255Z,13184
2016-06-03T11:49:18.227Z,13024
2016-06-03T11:50:18.229Z,12556
2016-06-03T11:51:18.076Z,11952
2016-06-03T11:52:18.265Z,11416
2016-06-03T11:53:18.268Z,11156
2016-06-03T11:54:38.426Z,10672
2016-06-03T11:55:18.867Z,10600
2016-06-03T11:56:18.292Z,10588
2016-06-03T11:57:18.279Z,10624
2016-06-03T11:58:18.298Z,10800
2016-06-03T11:59:18.315Z,10960
2016-06-03T12:00:18.334Z,11056
2016-06-03T12:01:18.024Z,11120
2016-06-03T12:02:18.183Z,10984
2016-06-03T12:03:18.326Z,10812
2016-06-03T12:04:18.344Z,10760
2016-06-03T12:05:18.364Z,10876
2016-06-03T12:06:18.397Z,11008
2016-06-03T12:07:18.399Z,11184
2016-06-03T12:08:18.355Z,11380
2016-06-03T12:09:21.420Z,11608
2016-06-03T12:10:18.282Z,11716
2016-06-03T12:11:18.317Z,11840
2016-06-03T12:12:18.413Z,11876
2016-06-03T12:13:18.400Z,11876
2016-06-03T12:14:18.434Z,11932
2016-06-03T12:15:18.436Z,12544
2016-06-03T12:16:18.439Z,12104
2016-06-03T12:17:18.473Z,11916
2016-06-03T12:18:18.289Z,11896
2016-06-03T12:19:24.729Z,11832
2016-06-03T12:20:18.466Z,11764
2016-06-03T12:21:18.499Z,11476
2016-06-03T12:22:18.487Z,11044
2016-06-03T12:23:18.490Z,10628
2016-06-03T12:24:24.774Z,10196
2016-06-03T12:25:18.510Z,9924
2016-06-03T12:26:18.388Z,9756
2016-06-03T12:27:18.547Z,9616
2016-06-03T12:28:18.534Z,9456
2016-06-03T12:29:21.584Z,9328
2016-06-03T12:30:18.556Z,9212
2016-06-03T12:31:18.558Z,9012
2016-06-03T12:32:18.576Z,8872
2016-06-03T12:33:18.564Z,8840
2016-06-03T12:34:31.285Z,8984
2016-06-03T12:35:18.600Z,9084
2016-06-03T12:36:18.603Z,9144
2016-06-03T12:37:18.636Z,9104
2016-06-03T12:38:18.592Z,9084
2016-06-03T12:39:21.658Z,9148
2016-06-03T12:40:19.691Z,9140
2016-06-03T12:41:19.038Z,9068
2016-06-03T12:42:18.494Z,8956
2016-06-03T12:43:18.669Z,8804
2016-06-03T12:44:18.639Z,8596
2016-06-03T12:45:18.658Z,8356
2016-06-03T12:46:18.661Z,8116
2016-06-03T12:47:18.663Z,7916
2016-06-03T12:48:18.682Z,7760
2016-06-03T12:49:31.450Z,7672
2016-06-03T12:50:18.734Z,7628
2016-06-03T12:51:18.565Z,7568
2016-06-03T12:52:18.693Z,7528
2016-06-03T12:53:18.554Z,7476
2016-06-03T12:54:18.729Z,7416
2016-06-03T12:55:18.606Z,7308
2016-06-03T12:56:20.484Z,7164
2016-06-03T12:57:18.737Z,7052
2016-06-03T12:58:18.771Z,6944
2016-06-03T12:59:18.743Z,6844
2016-06-03T13:00:18.605Z,6744
2016-06-03T13:01:18.795Z,6664
2016-06-03T13:02:18.797Z,6612
2016-06-03T13:03:18.612Z,6520
2016-06-03T13:04:31.397Z,6356
2016-06-03T13:05:18.790Z,6236
2016-06-03T13:06:18.793Z,6144
2016-06-03T13:07:18.796Z,6156
2016-06-03T13:08:18.829Z,6220
2016-06-03T13:09:18.831Z,6304
2016-06-03T13:10:18.820Z,6372
2016-06-03T13:11:18.869Z,6428
2016-06-03T13:12:18.668Z,6468
2016-06-03T13:13:18.842Z,6536
2016-06-03T13:14:18.845Z,6548
2016-06-03T13:15:18.864Z,6428
2016-06-03T13:16:18.866Z,6100
2016-06-03T13:17:38.041Z,5572
2016-06-03T13:18:18.856Z,5252
2016-06-03T13:19:18.890Z,4788
2016-06-03T13:20:18.861Z,4448
2016-06-03T13:21:18.896Z,4204
2016-06-03T13:22:18.883Z,4016
2016-06-03T13:23:18.901Z,3932
2016-06-03T13:24:18.919Z,3908
2016-06-03T13:25:19.437Z,3812
2016-06-03T13:26:19.299Z,3648
2016-06-03T13:27:18.755Z,3524
2016-06-03T13:28:18.946Z,3504
2016-06-03T13:29:18.918Z,3568